createdAt,value
2018-07-01T00:02:02.800Z,14.90
2018-07-01T00:04:36.582Z,14.90
2018-07-01T00:07:09.977Z,15.00
2018-07-01T00:09:43.252Z,15.00
2018-07-01T00:12:16.372Z,14.90
2018-07-01T00:14:49.507Z,14.90
2018-07-01T00:17:23.003Z,14.90
2018-07-01T00:19:56.865Z,15.00
2018-07-01T00:22:30.034Z,15.00
2018-07-01T00:25:03.283Z,15.10
2018-07-01T00:27:36.728Z,15.10
2018-07-01T00:30:10.283Z,15.10
2018-07-01T00:32:43.120Z,15.10
2018-07-01T00:35:16.902Z,14.90
2018-07-01T00:40:21.948Z,14.70
2018-07-01T00:42:55.168Z,14.70
2018-07-01T00:45:29.009Z,14.70
2018-07-01T00:48:01.911Z,14.80
2018-07-01T00:50:34.765Z,14.80
2018-07-01T00:53:07.633Z,14.80
2018-07-01T00:55:40.844Z,14.80
2018-07-01T00:58:15.364Z,14.70
2018-07-01T01:00:48.793Z,14.70
2018-07-01T01:03:22.146Z,14.60
2018-07-01T01:05:56.308Z,14.50
2018-07-01T01:08:29.424Z,14.50
2018-07-01T01:11:02.295Z,14.40
2018-07-01T01:13:35.531Z,14.40
2018-07-01T01:16:08.693Z,14.30
2018-07-01T01:18:42.592Z,14.20
2018-07-01T01:21:15.904Z,14.20
2018-07-01T01:23:48.776Z,14.10
2018-07-01T01:26:22.255Z,14.10
2018-07-01T01:28:55.238Z,14.10
2018-07-01T01:31:29.276Z,14.10
2018-07-01T01:34:03.068Z,14.10
2018-07-01T01:36:37.822Z,14.10
2018-07-01T01:39:15.853Z,14.10
2018-07-01T01:42:06.824Z,14.00
2018-07-01T01:44:50.752Z,14.00
2018-07-01T01:47:29.491Z,14.00
2018-07-01T01:50:08.523Z,13.90
2018-07-01T01:52:45.781Z,13.90
2018-07-01T01:55:23.363Z,13.80
2018-07-01T01:58:01.944Z,13.80
2018-07-01T02:00:39.477Z,13.80
2018-07-01T02:03:30.532Z,13.80
2018-07-01T02:06:08.641Z,13.80
2018-07-01T02:08:46.461Z,13.80
2018-07-01T02:11:19.765Z,13.80
2018-07-01T02:13:56.043Z,13.80
2018-07-01T02:16:35.033Z,13.90
